Airfield :
LOGIN :

Register | Disclaimer

   EN    FR    IT 

 










Legend :    VFR   Marginal VFR   IFR   Intensive IFR   Very Intensive IFR
Visi :
Ceiling :
>= 8 km
>= 3000ft
5 to 8 km
1000 to 3000 ft
1500m to 5 km
500 to 1000 ft
800 to 1500m
200 to 500 ft
< 800m
< 200 ft
Symbols :   Thunderstorms  Fog  Heavy snow  Heavy precipitations  Wind > 20 kt
SIGMETs :     Misc.  Thunderstorms  Icing  Turbulence  Mountain Waves  Volcanic Ashes






- Airport Elevation : -13 ft
- IATA code : LEY


EHLE - Lelystad

CURRENT METAR :
  • 021025Z AUTO 21010KT 180V250 9999 NSC 21/10 Q1021 NOSIG

EXPIRED METARs :
  • 020955Z AUTO 19010KT 150V230 9999 NSC 21/10 Q1021 NOSIG
  • 020925Z AUTO 20010KT 170V240 9999 NSC 20/10 Q1021 NOSIG
  • 020855Z AUTO 21010KT 170V250 9999 NSC 20/10 Q1021 NOSIG
  • 020825Z AUTO 20008KT 160V250 9999 NSC 19/11 Q1021 NOSIG
  • 012155Z AUTO 19005KT 9999 NCD 13/11 Q1020
  • 020755Z AUTO 20009KT 170V230 9999 NCD 18/12 Q1021 NOSIG

TAF TAF EHLE
Valid from the 02 at 06:00 until the 03 at 12:00 UTC


020456Z 0206/0312 21008KT CAVOK
BECMG 0309/0312 27010KT SCT035



MET'MAP, your aeronautical weather chart ! - Copyright ORBIFLY December 2007 - Disclaimer

ORBIFLY MET'MAP TEAM :

Programming & Development : Alexandra Zaïnal
Original concept : Baudouin d'Aumeries
Technical & hardware support : Manuel Goepfert
Assistance : Marc-Olivier Méhu




SOURCES & CREDITS :

   NOAA